Time;durP1;ratioP1;P1;durP2;ratioP2;P2;SDS_P1;SDS_P2;PMS_P1;PMS_P2;Temp;Humidity;BMP_temperature;BMP_pressure;BME280_temperature;BME280_humidity;BME280_pressure;Samples;Min_cycle;Max_cycle;Signal;HPM_P1;HPM_P2
2021/01/29 00:02:13;;;;;;;4.93;4.03;;;2.70;78.40;;;;;;4913187;29;20036;-86
2021/01/29 00:04:40;;;;;;;6.15;3.65;;;2.70;77.60;;;;;;4928693;29;20038;-86
2021/01/29 00:07:07;;;;;;;6.57;4.05;;;2.60;77.40;;;;;;4928080;29;20039;-87
2021/01/29 00:09:34;;;;;;;4.30;3.40;;;2.50;77.70;;;;;;4927396;29;20030;-86
2021/01/29 00:12:00;;;;;;;5.25;3.45;;;2.40;77.70;;;;;;4926919;29;20024;-86
2021/01/29 00:14:26;;;;;;;3.08;2.60;;;2.40;77.80;;;;;;4929162;29;20514;-87
2021/01/29 00:16:52;;;;;;;4.63;2.78;;;2.30;77.80;;;;;;4922868;29;20451;-85
2021/01/29 00:19:18;;;;;;;3.83;2.90;;;2.20;77.70;;;;;;4920444;29;20115;-85
2021/01/29 00:21:43;;;;;;;6.88;3.13;;;2.10;77.50;;;;;;4920052;29;20063;-85
2021/01/29 00:24:09;;;;;;;3.88;2.63;;;2.00;77.90;;;;;;4919664;29;20035;-85
2021/01/29 00:26:35;;;;;;;4.93;2.95;;;1.80;77.90;;;;;;4920095;29;20040;-85
2021/01/29 00:29:00;;;;;;;4.57;3.10;;;1.70;78.10;;;;;;4920069;29;20495;-86
2021/01/29 00:31:26;;;;;;;3.95;2.95;;;1.60;78.40;;;;;;4920161;29;20080;-85
2021/01/29 00:33:52;;;;;;;4.13;3.25;;;1.50;78.60;;;;;;4919655;29;20402;-85
2021/01/29 00:36:18;;;;;;;5.75;3.20;;;1.40;79.10;;;;;;4918413;29;20032;-85
2021/01/29 00:38:43;;;;;;;5.18;3.25;;;1.30;80.20;;;;;;4919840;29;20039;-85
2021/01/29 00:41:09;;;;;;;7.05;4.03;;;1.30;79.80;;;;;;4920177;29;20032;-85
2021/01/29 00:43:35;;;;;;;8.32;3.75;;;1.20;79.80;;;;;;4919927;29;20021;-84
2021/01/29 00:46:00;;;;;;;6.07;3.30;;;1.20;80.00;;;;;;4920306;29;20387;-85
2021/01/29 00:48:26;;;;;;;3.70;3.00;;;1.10;80.00;;;;;;4920038;29;20082;-85
2021/01/29 00:50:52;;;;;;;3.53;2.95;;;1.10;80.10;;;;;;4918831;29;20379;-84
2021/01/29 00:53:18;;;;;;;6.60;3.40;;;1.00;80.40;;;;;;4919533;29;20052;-85
2021/01/29 00:55:43;;;;;;;4.18;2.97;;;1.00;80.50;;;;;;4919971;29;20064;-85
2021/01/29 00:58:09;;;;;;;4.80;3.00;;;1.00;80.50;;;;;;4920071;29;20032;-85
2021/01/29 01:00:35;;;;;;;4.68;3.38;;;1.00;80.30;;;;;;4919377;29;20386;-85
2021/01/29 01:03:00;;;;;;;6.20;3.90;;;0.90;80.30;;;;;;4919304;29;20028;-85
2021/01/29 01:05:27;;;;;;;4.60;3.25;;;0.80;80.50;;;;;;4919837;29;20470;-85
2021/01/29 01:07:54;;;;;;;8.23;3.55;;;0.80;80.70;;;;;;4919194;29;20028;-85
2021/01/29 01:10:21;;;;;;;5.70;3.47;;;0.80;80.80;;;;;;4919575;29;20086;-85
2021/01/29 01:12:46;;;;;;;5.45;2.90;;;0.70;80.60;;;;;;4918524;29;20039;-85
2021/01/29 01:15:16;;;;;;;3.47;2.78;;;0.70;80.90;;;;;;4919288;29;20462;-85
2021/01/29 01:17:43;;;;;;;5.00;2.80;;;0.70;80.80;;;;;;4919736;29;20401;-84
2021/01/29 01:20:11;;;;;;;7.93;4.03;;;0.60;81.00;;;;;;4919635;29;20032;-84
2021/01/29 01:22:37;;;;;;;5.13;3.70;;;0.60;80.90;;;;;;4918877;29;20039;-84
2021/01/29 01:25:04;;;;;;;5.60;3.67;;;0.60;81.20;;;;;;4919697;29;20040;-85
2021/01/29 01:27:29;;;;;;;5.45;3.40;;;0.50;81.10;;;;;;4918898;29;20055;-84
2021/01/29 01:29:55;;;;;;;4.85;3.08;;;0.50;81.10;;;;;;4918811;29;20063;-84
2021/01/29 01:32:21;;;;;;;4.55;3.17;;;0.50;81.20;;;;;;4919078;29;20369;-84
2021/01/29 01:34:46;;;;;;;5.38;3.67;;;0.50;81.20;;;;;;4919057;29;20068;-84
2021/01/29 01:37:12;;;;;;;3.58;2.63;;;0.40;81.20;;;;;;4919021;29;20035;-85
2021/01/29 01:39:38;;;;;;;5.30;3.60;;;0.40;81.50;;;;;;4919173;29;20032;-84
2021/01/29 01:42:04;;;;;;;5.60;3.90;;;0.40;81.60;;;;;;4922066;29;20115;-85
2021/01/29 01:44:35;;;;;;;7.90;4.05;;;0.40;81.60;;;;;;4921482;29;20036;-85
2021/01/29 01:47:06;;;;;;;5.80;4.00;;;0.40;81.80;;;;;;4919005;29;20029;-85
2021/01/29 01:49:36;;;;;;;5.05;3.38;;;0.40;81.90;;;;;;4918690;29;20028;-85
2021/01/29 01:52:17;;;;;;;5.35;3.38;;;0.40;81.90;;;;;;4918858;29;20597;-85
2021/01/29 01:54:48;;;;;;;4.70;3.50;;;0.40;82.20;;;;;;4918546;29;20047;-85
2021/01/29 01:57:17;;;;;;;4.55;3.40;;;0.40;82.00;;;;;;4918801;29;20055;-85
2021/01/29 01:59:58;;;;;;;7.53;4.35;;;0.40;81.90;;;;;;4918522;29;20036;-86
2021/01/29 02:02:29;;;;;;;8.93;4.38;;;0.30;81.90;;;;;;4918500;29;20028;-86
2021/01/29 02:04:57;;;;;;;7.03;4.53;;;0.40;82.10;;;;;;4918952;29;20036;-86
2021/01/29 02:07:32;;;;;;;8.13;4.50;;;0.40;82.10;;;;;;4918974;29;20123;-86
2021/01/29 02:10:02;;;;;;;7.00;4.65;;;0.40;82.00;;;;;;4918328;29;20024;-86
2021/01/29 02:12:28;;;;;;;8.10;4.38;;;0.40;82.30;;;;;;4932940;29;20032;-85
2021/01/29 02:14:54;;;;;;;6.88;4.82;;;0.40;82.50;;;;;;4937375;29;20382;-86
2021/01/29 02:17:58;;;;;;;9.57;4.30;;;0.40;82.40;;;;;;4937236;29;20032;-86
2021/01/29 02:20:53;;;;;;;7.88;4.78;;;0.40;82.50;;;;;;4936810;29;20036;-86
2021/01/29 02:23:40;;;;;;;7.20;4.30;;;0.40;82.60;;;;;;4901654;29;20040;-85
2021/01/29 02:26:43;;;;;;;7.57;4.57;;;0.50;82.50;;;;;;4937116;29;20036;-86
2021/01/29 02:29:29;;;;;;;7.88;4.28;;;0.50;82.30;;;;;;4925716;29;20028;-85
2021/01/29 02:32:32;;;;;;;7.53;5.05;;;0.50;82.30;;;;;;4931260;29;20031;-86
2021/01/29 02:35:13;;;;;;;7.93;4.65;;;0.60;82.60;;;;;;4927240;29;20027;-86
2021/01/29 02:38:16;;;;;;;5.15;3.92;;;0.60;82.60;;;;;;4923903;29;20501;-86
2021/01/29 02:40:58;;;;;;;8.80;5.15;;;0.60;82.50;;;;;;4925458;29;20028;-86
2021/01/29 02:43:39;;;;;;;8.98;5.38;;;0.60;82.60;;;;;;4927644;29;20027;-88
2021/01/29 02:46:22;;;;;;;9.55;4.68;;;0.70;82.50;;;;;;4925244;29;20119;-87
2021/01/29 02:49:14;;;;;;;7.15;4.82;;;0.60;82.30;;;;;;4925670;29;20032;-86
2021/01/29 02:51:52;;;;;;;6.03;4.40;;;0.70;82.40;;;;;;4926884;29;20055;-85
2021/01/29 02:54:22;;;;;;;8.90;4.57;;;0.70;82.30;;;;;;4926918;29;20028;-86
2021/01/29 02:57:01;;;;;;;6.00;3.78;;;0.70;82.20;;;;;;4925771;29;20470;-86
2021/01/29 02:59:45;;;;;;;6.50;4.15;;;0.70;82.10;;;;;;4927361;29;20027;-85
2021/01/29 03:02:21;;;;;;;6.10;4.20;;;0.70;82.00;;;;;;4927511;29;20028;-86
2021/01/29 03:04:59;;;;;;;8.70;4.40;;;0.60;81.90;;;;;;4927079;29;20047;-86
2021/01/29 03:07:34;;;;;;;4.85;3.50;;;0.60;81.70;;;;;;4926612;29;20024;-86
2021/01/29 03:10:09;;;;;;;5.35;3.55;;;0.60;81.80;;;;;;4926167;29;20036;-85
2021/01/29 03:12:55;;;;;;;5.75;3.85;;;0.60;81.80;;;;;;4925980;29;20028;-85
2021/01/29 03:15:37;;;;;;;5.85;3.95;;;0.60;82.10;;;;;;4930848;29;20164;-85
2021/01/29 03:18:35;;;;;;;6.30;3.90;;;0.60;81.90;;;;;;4929415;29;20059;-86
2021/01/29 03:21:07;;;;;;;13.48;3.63;;;0.50;81.60;;;;;;4925473;29;20036;-85
2021/01/29 03:23:51;;;;;;;5.60;4.00;;;0.50;81.60;;;;;;4929457;29;20418;-87
2021/01/29 03:26:25;;;;;;;4.60;2.97;;;0.50;81.50;;;;;;4930309;29;20028;-84
2021/01/29 03:28:58;;;;;;;5.07;3.27;;;0.40;81.10;;;;;;4929665;29;20470;-85
2021/01/29 03:31:27;;;;;;;5.07;3.17;;;0.40;80.90;;;;;;4929395;29;20294;-85
2021/01/29 03:34:24;;;;;;;4.20;3.00;;;0.30;80.90;;;;;;4928594;29;20075;-86
2021/01/29 03:36:59;;;;;;;7.88;3.60;;;0.30;81.00;;;;;;4931346;29;20024;-85
2021/01/29 03:39:35;;;;;;;6.28;3.55;;;0.20;81.20;;;;;;4928135;29;20036;-86
2021/01/29 03:42:32;;;;;;;5.85;3.50;;;0.20;81.20;;;;;;4928317;29;20120;-84
2021/01/29 03:45:19;;;;;;;3.78;2.83;;;0.20;81.50;;;;;;4931931;29;20096;-85
2021/01/29 03:48:12;;;;;;;6.50;3.50;;;0.20;81.50;;;;;;4930794;29;20036;-85
2021/01/29 03:50:58;;;;;;;3.78;2.78;;;0.20;81.50;;;;;;4929217;29;20035;-85
2021/01/29 03:54:21;;;;;;;6.22;3.08;;;0.10;81.20;;;;;;4929879;29;20524;-86
2021/01/29 03:56:57;;;;;;;4.20;3.20;;;0.10;81.10;;;;;;4887853;29;20041;-85
2021/01/29 03:59:46;;;;;;;6.15;3.65;;;0.00;80.80;;;;;;4890647;29;20041;-86
2021/01/29 04:02:30;;;;;;;5.90;3.65;;;0.00;80.80;;;;;;4921930;29;20050;-85
2021/01/29 04:05:25;;;;;;;5.70;3.40;;;-0.10;81.10;;;;;;4941199;29;20071;-83
2021/01/29 04:07:55;;;;;;;5.47;3.25;;;-0.10;81.50;;;;;;4939838;29;20431;-83
2021/01/29 04:10:26;;;;;;;5.50;3.50;;;-0.10;81.60;;;;;;4941142;29;20031;-83
2021/01/29 04:13:12;;;;;;;5.47;3.80;;;-0.10;81.60;;;;;;4940671;29;20470;-83
2021/01/29 04:15:51;;;;;;;5.03;3.63;;;-0.10;81.60;;;;;;4940820;29;20036;-83
2021/01/29 04:18:40;;;;;;;6.78;3.88;;;-0.10;81.60;;;;;;4939256;29;20059;-85
2021/01/29 04:21:33;;;;;;;7.97;3.47;;;-0.10;81.60;;;;;;4939427;29;20107;-85
2021/01/29 04:24:05;;;;;;;8.65;4.20;;;-0.10;81.50;;;;;;4939143;29;20036;-85
2021/01/29 04:26:38;;;;;;;7.15;4.45;;;-0.10;81.40;;;;;;4938760;29;20087;-85
2021/01/29 04:29:09;;;;;;;9.10;4.57;;;-0.10;81.50;;;;;;4939085;29;20035;-85
2021/01/29 04:31:37;;;;;;;8.32;5.28;;;-0.10;81.70;;;;;;4939161;29;20036;-85
2021/01/29 04:34:17;;;;;;;8.90;4.65;;;-0.10;81.80;;;;;;4939265;29;20028;-87
2021/01/29 04:36:46;;;;;;;6.32;4.35;;;-0.10;81.60;;;;;;4935330;29;20386;-86
2021/01/29 04:39:19;;;;;;;12.82;5.05;;;-0.10;81.50;;;;;;4929482;29;20462;-87
2021/01/29 04:42:17;;;;;;;7.47;5.20;;;0.00;81.50;;;;;;4930895;29;20470;-86
2021/01/29 04:45:00;;;;;;;8.05;5.10;;;-0.10;81.30;;;;;;4929629;29;20042;-86
2021/01/29 04:48:01;;;;;;;8.68;5.50;;;-0.10;81.20;;;;;;4929092;29;20020;-86
2021/01/29 04:50:46;;;;;;;8.40;5.32;;;0.00;81.30;;;;;;4870652;29;20037;-86
2021/01/29 04:53:33;;;;;;;9.20;5.90;;;0.00;81.70;;;;;;4922366;29;20048;-88
2021/01/29 04:56:20;;;;;;;9.95;5.93;;;0.00;81.60;;;;;;4926345;29;20483;-85
2021/01/29 04:59:20;;;;;;;10.35;5.82;;;0.10;81.20;;;;;;4919447;29;20032;-85
2021/01/29 05:02:13;;;;;;;8.07;4.53;;;0.00;80.80;;;;;;4919668;29;20036;-84
2021/01/29 05:04:45;;;;;;;8.73;5.32;;;0.10;81.10;;;;;;4919070;29;20431;-85
2021/01/29 05:07:42;;;;;;;9.25;5.53;;;0.00;81.00;;;;;;4919162;29;20032;-86
2021/01/29 05:10:50;;;;;;;13.15;5.40;;;0.10;80.60;;;;;;4898008;29;20036;-85
2021/01/29 05:13:37;;;;;;;10.70;5.93;;;0.10;80.20;;;;;;4923185;29;20031;-86
2021/01/29 05:16:27;;;;;;;12.75;7.90;;;0.00;80.20;;;;;;4919671;29;20036;-85
2021/01/29 05:19:18;;;;;;;12.73;6.78;;;0.00;79.90;;;;;;4919053;29;20036;-84
2021/01/29 05:22:06;;;;;;;13.90;6.05;;;0.00;79.60;;;;;;4918179;29;20374;-86
2021/01/29 05:24:58;;;;;;;8.85;5.70;;;-0.10;79.60;;;;;;4918443;29;20044;-84
2021/01/29 05:28:01;;;;;;;9.77;5.38;;;-0.10;79.40;;;;;;4918831;29;20040;-86
2021/01/29 05:30:46;;;;;;;10.30;6.45;;;-0.10;79.00;;;;;;4918522;29;20100;-85
2021/01/29 05:33:53;;;;;;;7.93;5.22;;;-0.20;79.10;;;;;;4918576;29;20028;-85
2021/01/29 05:36:33;;;;;;;12.25;6.97;;;-0.20;78.80;;;;;;4917709;29;20075;-85
2021/01/29 05:39:05;;;;;;;10.65;5.60;;;-0.20;78.80;;;;;;4918227;29;20506;-85
2021/01/29 05:41:42;;;;;;;12.40;7.38;;;-0.20;78.40;;;;;;4918315;29;20036;-88
2021/01/29 05:44:31;;;;;;;10.45;6.60;;;-0.20;78.40;;;;;;4918008;29;20039;-85
2021/01/29 05:47:03;;;;;;;14.02;7.72;;;-0.30;78.40;;;;;;4918358;29;20040;-85
2021/01/29 05:49:47;;;;;;;14.82;7.05;;;-0.30;78.30;;;;;;4918364;29;20056;-88
2021/01/29 05:52:29;;;;;;;10.48;5.82;;;-0.40;77.90;;;;;;4918015;29;20111;-86
2021/01/29 05:54:57;;;;;;;12.32;6.82;;;-0.40;77.70;;;;;;4918600;29;20088;-84
2021/01/29 05:57:29;;;;;;;12.88;7.05;;;-0.50;77.50;;;;;;4918361;29;20128;-85
2021/01/29 05:59:55;;;;;;;16.20;8.60;;;-0.50;77.90;;;;;;4918662;29;20075;-85
2021/01/29 06:02:42;;;;;;;17.20;9.05;;;-0.60;78.10;;;;;;4917261;29;20466;-86
2021/01/29 06:05:10;;;;;;;14.90;7.50;;;-0.50;78.40;;;;;;4918244;29;20088;-85
2021/01/29 06:07:39;;;;;;;13.30;7.78;;;-0.50;78.50;;;;;;4924220;29;20036;-86
2021/01/29 06:10:17;;;;;;;15.63;8.73;;;-0.40;78.20;;;;;;4937184;29;20032;-85
2021/01/29 06:13:20;;;;;;;14.48;7.82;;;-0.40;78.20;;;;;;4926026;29;20099;-85
2021/01/29 06:16:16;;;;;;;14.90;8.55;;;-0.40;78.20;;;;;;4929212;29;20027;-84
2021/01/29 06:18:53;;;;;;;16.95;8.68;;;-0.30;78.30;;;;;;4927574;29;20055;-86
2021/01/29 06:21:43;;;;;;;15.50;9.10;;;-0.30;77.60;;;;;;4927174;29;20497;-86
2021/01/29 06:24:21;;;;;;;14.88;8.02;;;-0.40;77.50;;;;;;4926595;29;20510;-85
2021/01/29 06:27:02;;;;;;;14.98;8.25;;;-0.30;77.40;;;;;;4926452;29;20474;-85
2021/01/29 06:29:48;;;;;;;14.88;8.38;;;-0.40;77.10;;;;;;4926331;29;20028;-85
2021/01/29 06:32:34;;;;;;;22.40;9.32;;;-0.40;77.10;;;;;;4927166;29;20052;-86
2021/01/29 06:35:05;;;;;;;21.45;10.98;;;-0.50;76.90;;;;;;4925043;29;20462;-86
2021/01/29 06:38:15;;;;;;;19.90;10.13;;;-0.50;77.10;;;;;;4934425;29;20079;-85
2021/01/29 06:41:02;;;;;;;26.80;11.68;;;-0.50;77.70;;;;;;4918477;29;20072;-84
2021/01/29 06:43:33;;;;;;;21.70;9.90;;;-0.50;77.30;;;;;;4921925;29;20159;-86
2021/01/29 06:46:25;;;;;;;26.38;11.55;;;-0.40;77.20;;;;;;4916056;29;20162;-85
2021/01/29 06:48:59;;;;;;;16.30;10.35;;;-0.40;77.20;;;;;;4903498;29;20058;-83
2021/01/29 06:51:28;;;;;;;19.55;9.57;;;-0.30;77.10;;;;;;4926174;29;20047;-85
2021/01/29 06:54:20;;;;;;;22.90;11.32;;;-0.30;76.50;;;;;;4921406;29;20028;-85
2021/01/29 06:57:04;;;;;;;23.35;11.90;;;-0.40;76.30;;;;;;4918151;29;20064;-85
2021/01/29 06:59:40;;;;;;;22.13;11.57;;;-0.30;76.90;;;;;;4917283;29;20033;-85
2021/01/29 07:02:49;;;;;;;22.17;11.57;;;-0.30;77.20;;;;;;4917331;29;20055;-85
2021/01/29 07:05:43;;;;;;;17.50;10.07;;;-0.10;77.10;;;;;;4917029;29;20038;-85
2021/01/29 07:08:31;;;;;;;21.38;10.00;;;0.10;77.00;;;;;;4901829;29;20482;-85
2021/01/29 07:11:15;;;;;;;19.58;10.15;;;0.30;76.70;;;;;;4917063;29;20123;-85
2021/01/29 07:14:07;;;;;;;18.67;7.82;;;0.50;75.90;;;;;;4917045;29;20032;-85
2021/01/29 07:17:14;;;;;;;20.73;8.82;;;0.70;75.20;;;;;;4917237;29;20036;-86
2021/01/29 07:19:49;;;;;;;18.63;9.85;;;0.70;73.90;;;;;;4915936;29;20111;-84
2021/01/29 07:22:41;;;;;;;16.70;9.05;;;0.60;73.20;;;;;;4916712;29;20056;-85
2021/01/29 07:25:14;;;;;;;24.45;11.63;;;0.60;73.20;;;;;;4916864;29;20427;-86
2021/01/29 07:28:18;;;;;;;22.20;11.00;;;0.60;73.00;;;;;;4926816;29;20032;-85
2021/01/29 07:30:55;;;;;;;20.88;12.07;;;0.60;73.70;;;;;;4896831;29;20032;-89
2021/01/29 07:33:32;;;;;;;26.55;13.50;;;0.70;74.00;;;;;;4921592;29;20091;-84
2021/01/29 07:36:36;;;;;;;26.02;12.20;;;0.80;73.60;;;;;;4927330;29;20474;-85
2021/01/29 07:39:05;;;;;;;28.15;14.23;;;0.90;72.90;;;;;;4926624;29;20036;-85
2021/01/29 07:41:45;;;;;;;23.02;11.25;;;0.90;72.80;;;;;;4924290;29;20070;-84
2021/01/29 07:44:29;;;;;;;21.27;11.80;;;0.90;72.50;;;;;;4925107;29;20059;-85
2021/01/29 07:47:09;;;;;;;29.07;13.53;;;0.90;72.30;;;;;;4925622;29;20058;-84
2021/01/29 07:49:57;;;;;;;26.48;13.00;;;0.90;71.70;;;;;;4928709;29;20024;-86
2021/01/29 07:52:45;;;;;;;22.92;11.75;;;0.90;71.60;;;;;;4916832;29;20451;-85
2021/01/29 07:55:25;;;;;;;23.45;11.88;;;0.90;71.20;;;;;;4935706;29;20040;-83
2021/01/29 07:58:19;;;;;;;31.15;14.25;;;0.90;71.10;;;;;;4927023;29;20028;-90
2021/01/29 08:01:18;;;;;;;23.20;11.75;;;0.90;70.80;;;;;;4927183;29;20558;-90
2021/01/29 08:04:05;;;;;;;27.73;13.23;;;0.90;71.20;;;;;;4929582;29;20019;-91
2021/01/29 08:07:12;;;;;;;31.50;12.68;;;1.00;71.70;;;;;;4923615;29;20040;-90
2021/01/29 08:09:42;;;;;;;29.00;13.18;;;1.10;71.20;;;;;;4928359;29;20111;-93
2021/01/29 08:12:20;;;;;;;33.13;14.48;;;1.10;70.30;;;;;;4936535;29;20028;-92
2021/01/29 08:15:05;;;;;;;30.77;14.55;;;1.10;70.10;;;;;;4929344;29;20168;-89
2021/01/29 08:17:41;;;;;;;32.17;14.10;;;1.00;70.10;;;;;;4929918;29;20062;-90
2021/01/29 08:20:34;;;;;;;24.95;12.65;;;1.00;70.10;;;;;;4929296;29;20028;-91
2021/01/29 08:23:27;;;;;;;24.45;12.60;;;1.00;70.20;;;;;;4928207;29;20063;-91
2021/01/29 08:26:11;;;;;;;29.50;14.38;;;1.10;70.40;;;;;;4930211;29;20032;-92
2021/01/29 08:29:14;;;;;;;22.33;11.00;;;1.20;70.90;;;;;;4930689;29;20031;-90
2021/01/29 08:31:49;;;;;;;22.92;12.00;;;1.40;70.10;;;;;;4939174;29;20347;-90
2021/01/29 08:34:14;;;;;;;25.83;13.00;;;1.40;69.40;;;;;;4938962;29;20024;-91
2021/01/29 08:37:08;;;;;;;24.77;12.45;;;1.40;68.50;;;;;;4939069;29;20046;-90
2021/01/29 08:39:43;;;;;;;21.08;10.68;;;1.30;68.20;;;;;;4937842;29;20042;-92
2021/01/29 08:42:24;;;;;;;;;;;1.20;68.40;;;;;;4939496;29;20042;-91
2021/01/29 08:45:15;;;;;;;21.75;11.70;;;1.20;68.90;;;;;;4941329;29;19997;-91
2021/01/29 08:48:03;;;;;;;20.92;10.18;;;1.20;68.20;;;;;;4943227;29;20027;-89
2021/01/29 08:50:51;;;;;;;20.70;12.25;;;1.10;68.30;;;;;;4938360;29;20050;-92
2021/01/29 08:54:00;;;;;;;28.10;13.00;;;1.00;68.10;;;;;;4938953;29;20039;-89
2021/01/29 08:56:50;;;;;;;27.67;15.45;;;1.00;68.20;;;;;;4892844;29;20050;-91
2021/01/29 08:59:18;;;;;;;27.35;14.35;;;0.90;68.40;;;;;;4938311;29;20028;-91
2021/01/29 09:02:15;;;;;;;29.45;14.77;;;1.00;68.80;;;;;;4938249;29;20034;-93
2021/01/29 09:04:50;;;;;;;22.40;12.70;;;1.00;68.70;;;;;;4936866;29;20036;-91
2021/01/29 09:07:23;;;;;;;22.58;12.25;;;1.10;68.70;;;;;;4952944;29;20031;-91
2021/01/29 09:09:50;;;;;;;22.77;13.07;;;1.20;68.40;;;;;;4938291;29;20103;-91
2021/01/29 09:12:25;;;;;;;21.95;11.63;;;1.20;68.20;;;;;;4937645;29;20511;-91
2021/01/29 09:15:03;;;;;;;29.70;11.98;;;1.20;68.30;;;;;;4938079;29;20037;-91
2021/01/29 09:17:35;;;;;;;20.35;10.55;;;1.30;68.20;;;;;;4937845;29;20529;-93
2021/01/29 09:20:05;;;;;;;22.02;12.23;;;1.40;68.10;;;;;;4939675;29;20081;-92
2021/01/29 09:22:49;;;;;;;22.42;10.55;;;1.40;67.90;;;;;;4939629;29;20023;-93
2021/01/29 09:25:30;;;;;;;26.75;12.80;;;1.40;67.60;;;;;;4937049;29;20373;-91
2021/01/29 09:28:07;;;;;;;30.50;13.95;;;1.40;67.70;;;;;;4934240;29;20089;-93
2021/01/29 09:30:45;;;;;;;25.40;12.23;;;1.40;67.80;;;;;;4918905;29;20043;-92
2021/01/29 09:33:30;;;;;;;26.65;13.57;;;1.40;67.80;;;;;;4918192;29;20032;-94
2021/01/29 09:36:03;;;;;;;25.48;11.38;;;1.40;68.20;;;;;;4922553;29;20028;-95
2021/01/29 09:38:51;;;;;;;32.53;14.38;;;1.40;67.90;;;;;;4922014;29;20391;-94
2021/01/29 09:41:17;;;;;;;31.30;14.32;;;1.20;68.20;;;;;;4921052;29;20103;-94
2021/01/29 09:43:48;;;;;;;27.13;13.48;;;1.20;68.80;;;;;;4921591;29;20063;-93
2021/01/29 09:46:42;;;;;;;39.80;16.00;;;1.10;69.30;;;;;;4919820;29;20032;-94
2021/01/29 09:49:11;;;;;;;28.63;13.65;;;1.10;69.60;;;;;;4908820;29;20040;-95
2021/01/29 09:52:00;;;;;;;31.77;15.10;;;1.10;70.30;;;;;;4923068;29;20051;-93
2021/01/29 09:54:38;;;;;;;35.42;14.95;;;1.00;70.30;;;;;;4930922;29;20123;-94
2021/01/29 09:57:17;;;;;;;33.35;14.93;;;1.00;70.50;;;;;;4922438;29;20043;-96
2021/01/29 10:00:02;;;;;;;34.95;16.83;;;0.90;70.50;;;;;;4920432;29;20032;-91
2021/01/29 10:02:47;;;;;;;;;;;0.80;70.80;;;;;;4932057;29;20028;-90
2021/01/29 10:05:25;;;;;;;34.22;16.02;;;0.70;71.10;;;;;;4930995;29;19907;-92
2021/01/29 10:08:10;;;;;;;27.90;13.18;;;0.60;71.70;;;;;;4931232;29;20021;-92
2021/01/29 10:10:50;;;;;;;25.77;13.27;;;0.60;72.50;;;;;;4930950;29;20090;-93
2021/01/29 10:13:54;;;;;;;32.35;13.40;;;0.60;73.00;;;;;;4922227;29;20055;-88
2021/01/29 10:16:23;;;;;;;27.83;15.05;;;0.50;73.20;;;;;;4917269;29;20123;-91
2021/01/29 10:19:04;;;;;;;30.88;15.18;;;0.50;73.70;;;;;;4918589;29;20028;-90
2021/01/29 10:21:57;;;;;;;29.45;14.85;;;0.50;73.70;;;;;;4918920;29;20074;-89
2021/01/29 10:25:03;;;;;;;29.08;12.18;;;0.50;73.90;;;;;;4918557;29;20036;-90
2021/01/29 10:27:41;;;;;;;26.23;12.88;;;0.60;73.80;;;;;;4903006;29;20047;-91
2021/01/29 10:30:15;;;;;;;27.88;14.10;;;0.50;73.30;;;;;;4918546;29;20500;-91
2021/01/29 10:32:42;;;;;;;31.70;15.48;;;0.40;73.00;;;;;;4918416;29;20059;-90
2021/01/29 10:35:17;;;;;;;29.65;13.38;;;0.30;73.30;;;;;;4918111;29;20032;-92
2021/01/29 10:38:06;;;;;;;28.08;13.68;;;0.30;73.60;;;;;;4917452;29;20038;-91
2021/01/29 10:40:59;;;;;;;31.15;15.45;;;0.20;73.60;;;;;;4920156;29;20475;-88
2021/01/29 10:43:42;;;;;;;28.23;14.68;;;0.20;73.80;;;;;;4920421;29;20036;-89
2021/01/29 10:46:08;;;;;;;35.67;16.17;;;0.20;74.10;;;;;;4926729;29;20030;-90
2021/01/29 10:48:50;;;;;;;34.20;15.75;;;0.20;74.20;;;;;;4926541;29;20377;-91
2021/01/29 10:54:40;;;;;;;31.30;15.57;;;0.10;74.30;;;;;;4931176;29;20047;-90
2021/01/29 10:57:25;;;;;;;25.88;14.27;;;0.10;74.30;;;;;;4928104;29;20032;-91
2021/01/29 11:00:00;;;;;;;29.52;14.32;;;0.10;74.50;;;;;;4929993;29;20079;-89
2021/01/29 11:02:37;;;;;;;24.00;12.18;;;0.10;74.30;;;;;;4924772;29;20054;-89
2021/01/29 11:05:18;;;;;;;30.73;16.02;;;0.10;74.60;;;;;;4933103;29;20038;-90
2021/01/29 11:07:48;;;;;;;31.83;15.45;;;0.10;75.00;;;;;;4935781;29;20042;-90
2021/01/29 11:10:20;;;;;;;29.45;14.80;;;0.10;75.20;;;;;;4926675;29;20031;-90
2021/01/29 11:12:54;;;;;;;34.03;16.80;;;0.10;75.20;;;;;;4917390;29;20025;-90
2021/01/29 11:15:48;;;;;;;35.97;17.17;;;0.10;75.30;;;;;;4917307;29;20118;-90
2021/01/29 11:18:35;;;;;;;26.45;13.38;;;0.20;75.90;;;;;;4917339;29;20044;-90
2021/01/29 11:21:42;;;;;;;33.78;15.63;;;0.20;75.60;;;;;;4917454;29;20444;-89
2021/01/29 11:24:32;;;;;;;30.83;15.15;;;0.20;75.50;;;;;;4877391;29;20033;-89
2021/01/29 11:27:19;;;;;;;26.92;13.70;;;0.30;75.80;;;;;;4916921;29;20042;-89
2021/01/29 11:30:05;;;;;;;28.00;14.63;;;0.40;76.20;;;;;;4915629;29;20035;-87
2021/01/29 11:32:44;;;;;;;36.22;18.13;;;0.40;76.40;;;;;;4921163;29;20039;-89
2021/01/29 11:35:28;;;;;;;42.83;17.02;;;0.50;76.50;;;;;;4929564;29;20035;-89
2021/01/29 11:37:56;;;;;;;45.47;17.42;;;0.50;76.30;;;;;;4940931;29;20040;-89
2021/01/29 11:40:32;;;;;;;43.72;17.80;;;0.50;76.40;;;;;;4940364;29;20079;-89
2021/01/29 11:43:07;;;;;;;53.03;20.17;;;0.50;76.40;;;;;;4939693;29;20442;-91
2021/01/29 11:45:47;;;;;;;40.03;16.98;;;0.60;76.60;;;;;;4939963;29;20027;-90
2021/01/29 11:48:30;;;;;;;34.55;15.38;;;0.60;76.60;;;;;;4939824;29;20027;-88
2021/01/29 11:50:59;;;;;;;27.13;13.60;;;0.60;76.40;;;;;;4939960;29;20048;-88
2021/01/29 11:57:36;;;;;;;26.83;13.65;;;0.50;76.30;;;;;;4947752;29;20500;-87
2021/01/29 12:00:11;;;;;;;29.33;13.98;;;0.60;76.50;;;;;;4950543;29;20035;-85
2021/01/29 12:02:39;;;;;;;26.75;13.15;;;0.60;76.50;;;;;;4943181;29;20035;-89
2021/01/29 12:05:34;;;;;;;25.88;13.52;;;0.60;76.80;;;;;;4939836;29;20028;-88
2021/01/29 12:08:07;;;;;;;;;;;0.60;76.70;;;;;;4939707;29;20102;-88
2021/01/29 12:10:55;;;;;;;20.38;11.55;;;0.50;76.70;;;;;;4937879;29;19935;-88
2021/01/29 12:13:42;;;;;;;40.03;17.30;;;0.60;77.00;;;;;;4936065;29;20446;-87
2021/01/29 12:16:29;;;;;;;22.77;12.07;;;0.60;77.10;;;;;;4938941;29;20394;-88
2021/01/29 12:18:56;;;;;;;20.63;12.23;;;0.60;77.20;;;;;;4939278;29;20055;-87
2021/01/29 12:21:22;;;;;;;23.02;11.95;;;0.60;77.40;;;;;;4940603;29;20031;-88
2021/01/29 12:23:51;;;;;;;23.45;12.73;;;0.50;77.60;;;;;;4939826;29;20031;-87
2021/01/29 12:26:36;;;;;;;22.33;13.07;;;0.60;77.90;;;;;;4938809;29;20023;-88
2021/01/29 12:29:22;;;;;;;20.50;12.05;;;0.60;77.90;;;;;;4934660;29;20058;-87
2021/01/29 12:32:22;;;;;;;26.55;12.48;;;0.70;77.80;;;;;;4938716;29;20024;-87
2021/01/29 12:35:10;;;;;;;23.25;12.02;;;0.70;77.70;;;;;;4938089;29;20028;-88
2021/01/29 12:38:02;;;;;;;24.02;11.82;;;0.70;78.10;;;;;;4936930;29;20470;-75
2021/01/29 12:40:52;;;;;;;30.02;15.57;;;0.70;78.40;;;;;;4910260;29;20059;-89
2021/01/29 12:43:48;;;;;;;28.55;15.95;;;0.70;78.50;;;;;;4920351;29;20485;-89
2021/01/29 12:46:25;;;;;;;25.20;13.57;;;0.70;78.60;;;;;;4919183;29;20561;-90
2021/01/29 12:49:09;;;;;;;27.38;14.10;;;0.70;78.40;;;;;;4933882;29;20037;-90
2021/01/29 12:51:59;;;;;;;29.77;15.00;;;0.70;78.60;;;;;;4918907;29;20127;-90
2021/01/29 12:54:55;;;;;;;31.73;14.13;;;0.70;78.40;;;;;;4919729;29;20060;-90
2021/01/29 12:57:24;;;;;;;29.90;15.18;;;0.70;78.70;;;;;;4919542;29;20067;-90
2021/01/29 12:59:54;;;;;;;29.48;14.55;;;0.70;79.60;;;;;;4919206;29;20035;-90
2021/01/29 13:02:45;;;;;;;31.73;15.45;;;0.70;78.90;;;;;;4919522;29;20040;-90
2021/01/29 13:05:39;;;;;;;32.25;15.05;;;0.70;79.00;;;;;;4919918;29;20486;-91
2021/01/29 13:08:38;;;;;;;25.45;14.18;;;0.70;78.90;;;;;;4920256;29;20032;-90
2021/01/29 13:11:49;;;;;;;27.58;14.15;;;0.70;78.60;;;;;;4919898;29;20056;-90
2021/01/29 13:14:23;;;;;;;20.98;10.50;;;0.60;78.80;;;;;;4919933;29;20020;-91
2021/01/29 13:17:09;;;;;;;29.40;14.52;;;0.60;78.50;;;;;;4920274;29;20409;-90
2021/01/29 13:19:38;;;;;;;25.80;12.63;;;0.60;78.50;;;;;;4919630;29;20064;-92
2021/01/29 13:22:18;;;;;;;34.25;16.58;;;0.50;78.60;;;;;;4920438;29;20052;-90
2021/01/29 13:25:25;;;;;;;28.10;14.15;;;0.50;78.70;;;;;;4919884;29;20032;-89
2021/01/29 13:28:05;;;;;;;27.23;14.00;;;0.50;78.90;;;;;;4918868;29;20398;-90
2021/01/29 13:30:40;;;;;;;33.00;15.13;;;0.50;78.90;;;;;;4922670;29;20080;-90
2021/01/29 13:33:27;;;;;;;35.70;16.50;;;0.50;79.20;;;;;;4925158;29;20080;-91
2021/01/29 13:36:17;;;;;;;30.38;13.75;;;0.50;79.30;;;;;;4923602;29;20028;-87
2021/01/29 13:38:43;;;;;;;28.05;14.43;;;0.50;79.30;;;;;;4922514;29;20036;-87
2021/01/29 13:41:22;;;;;;;29.33;14.07;;;0.50;78.90;;;;;;4921985;29;20032;-91
2021/01/29 13:43:49;;;;;;;29.55;15.55;;;0.50;78.90;;;;;;4923975;29;20028;-89
2021/01/29 13:46:25;;;;;;;28.83;15.43;;;0.50;78.90;;;;;;4922323;29;20024;-90
2021/01/29 13:49:30;;;;;;;30.17;13.35;;;0.40;78.80;;;;;;4919416;29;20080;-90
2021/01/29 13:51:57;;;;;;;29.33;14.13;;;0.40;78.70;;;;;;4919985;29;20048;-93
2021/01/29 13:54:35;;;;;;;26.45;13.77;;;0.40;79.00;;;;;;4919384;29;20028;-91
2021/01/29 13:57:18;;;;;;;29.67;14.45;;;0.40;79.00;;;;;;4919490;29;20039;-89
2021/01/29 13:59:56;;;;;;;26.88;14.30;;;0.40;78.90;;;;;;4918998;29;20055;-91
2021/01/29 14:02:38;;;;;;;27.73;13.43;;;0.40;79.00;;;;;;4919734;29;20126;-90